createdAt,value
2022-11-29T00:02:07.518Z,101338.53
2022-11-29T00:04:36.631Z,101341.16
2022-11-29T00:07:05.132Z,101326.41
2022-11-29T00:09:33.577Z,101329.03
2022-11-29T00:12:14.231Z,101329.09
2022-11-29T00:14:45.963Z,101334.41
2022-11-29T00:17:15.014Z,101324.84
2022-11-29T00:19:45.435Z,101327.53
2022-11-29T00:22:14.085Z,101335.50
2022-11-29T00:24:43.907Z,101333.84
2022-11-29T00:27:12.656Z,101333.06
2022-11-29T00:29:42.218Z,101340.97
2022-11-29T00:32:12.479Z,101355.94
2022-11-29T00:34:41.000Z,101347.28
2022-11-29T00:37:09.707Z,101341.19
2022-11-29T00:39:38.111Z,101363.84
2022-11-29T00:42:06.960Z,101349.91
2022-11-29T00:44:35.580Z,101356.06
2022-11-29T00:47:05.263Z,101357.00
2022-11-29T00:49:35.630Z,101364.88
2022-11-29T00:52:04.380Z,101364.78
2022-11-29T00:54:32.939Z,101367.47
2022-11-29T00:57:01.550Z,101373.56
2022-11-29T00:59:30.690Z,101369.19
2022-11-29T01:01:59.775Z,101374.41
2022-11-29T01:04:28.398Z,101376.28
2022-11-29T01:06:59.498Z,101371.09
2022-11-29T01:09:28.155Z,101366.84
2022-11-29T01:11:56.730Z,101350.31
2022-11-29T01:14:25.425Z,101340.03
2022-11-29T01:16:53.952Z,101339.28
2022-11-29T01:19:22.576Z,101338.34
2022-11-29T01:21:51.149Z,101335.81
2022-11-29T01:24:22.372Z,101331.50
2022-11-29T01:26:50.664Z,101328.94
2022-11-29T01:29:19.141Z,101335.00
2022-11-29T01:31:47.565Z,101331.56
2022-11-29T01:34:16.119Z,101342.03
2022-11-29T01:36:44.651Z,101349.84
2022-11-29T01:39:13.804Z,101347.16
2022-11-29T01:41:44.639Z,101360.16
2022-11-29T01:44:46.634Z,101366.97
2022-11-29T01:47:15.332Z,101364.34
2022-11-29T01:49:46.970Z,101356.41
2022-11-29T01:52:19.824Z,101354.66
2022-11-29T01:54:52.510Z,101350.97
2022-11-29T01:57:23.495Z,101356.41
2022-11-29T01:59:57.076Z,101354.66
2022-11-29T02:02:32.730Z,101358.25
2022-11-29T02:05:03.451Z,101357.50
2022-11-29T02:07:32.857Z,101360.25
2022-11-29T02:10:01.729Z,101367.28
2022-11-29T02:12:41.798Z,101366.63
2022-11-29T02:15:25.568Z,101365.06
2022-11-29T02:18:10.409Z,101375.38
2022-11-29T02:21:17.601Z,101382.56
2022-11-29T02:24:42.181Z,101389.38
2022-11-29T02:27:40.988Z,101397.16
2022-11-29T02:30:34.294Z,101398.84
2022-11-29T02:33:30.611Z,101397.91
2022-11-29T02:36:20.910Z,101404.09
2022-11-29T02:39:17.490Z,101390.22
2022-11-29T02:42:07.678Z,101385.03
2022-11-29T02:45:11.373Z,101384.19
2022-11-29T02:47:54.789Z,101382.59
2022-11-29T02:50:41.443Z,101389.78
2022-11-29T02:53:17.671Z,101387.50
2022-11-29T02:55:55.207Z,101388.41
2022-11-29T02:58:29.480Z,101384.22
2022-11-29T03:01:09.484Z,101392.13
2022-11-29T03:03:45.070Z,101393.91
2022-11-29T03:06:24.093Z,101401.75
2022-11-29T03:09:02.559Z,101410.56
2022-11-29T03:11:39.882Z,101409.63
2022-11-29T03:14:19.093Z,101415.88
2022-11-29T03:17:01.204Z,101402.88
2022-11-29T03:19:56.983Z,101403.09
2022-11-29T03:22:41.819Z,101408.44
2022-11-29T03:25:15.000Z,101411.88
2022-11-29T03:27:48.205Z,101412.78
2022-11-29T03:30:19.970Z,101410.38
2022-11-29T03:32:56.995Z,101414.81
2022-11-29T03:35:35.292Z,101412.06
2022-11-29T03:38:16.054Z,101428.75
2022-11-29T03:40:52.453Z,101434.16
2022-11-29T03:43:28.556Z,101427.06
2022-11-29T03:46:01.440Z,101430.72
2022-11-29T03:48:35.851Z,101424.50
2022-11-29T03:51:10.058Z,101423.59
2022-11-29T03:53:49.850Z,101419.94
2022-11-29T03:56:29.983Z,101413.75
2022-11-29T03:59:13.643Z,101424.13
2022-11-29T04:02:05.874Z,101431.91
2022-11-29T04:05:11.854Z,101426.59
2022-11-29T04:08:02.070Z,101443.09
2022-11-29T04:10:49.769Z,101433.41
2022-11-29T04:13:49.124Z,101439.38
2022-11-29T04:16:54.841Z,101442.91
2022-11-29T04:20:01.396Z,101451.53
2022-11-29T04:22:57.011Z,101472.47
2022-11-29T04:25:44.818Z,101478.34
2022-11-29T04:28:54.978Z,101473.97
2022-11-29T04:31:38.474Z,101480.91
2022-11-29T04:34:54.805Z,101478.19
2022-11-29T04:37:39.996Z,101472.97
2022-11-29T04:40:28.309Z,101477.34
2022-11-29T04:43:23.088Z,101483.44
2022-11-29T04:46:15.992Z,101481.69
2022-11-29T04:49:08.236Z,101488.63
2022-11-29T04:51:57.299Z,101492.09
2022-11-29T04:54:36.351Z,101495.50
2022-11-29T04:57:11.089Z,101489.28
2022-11-29T04:59:46.591Z,101488.34
2022-11-29T05:02:28.067Z,101501.34
2022-11-29T05:05:06.132Z,101498.56
2022-11-29T05:07:46.014Z,101487.22
2022-11-29T05:10:23.967Z,101481.94
2022-11-29T05:13:01.240Z,101484.56
2022-11-29T05:15:51.739Z,101480.19
2022-11-29T05:18:40.063Z,101471.31
2022-11-29T05:21:16.288Z,101480.03
2022-11-29T05:23:56.760Z,101489.63
2022-11-29T05:26:30.789Z,101493.13
2022-11-29T05:29:05.263Z,101507.13
2022-11-29T05:31:57.419Z,101514.06
2022-11-29T05:34:56.087Z,101519.28
2022-11-29T05:37:35.104Z,101519.34
2022-11-29T05:40:32.530Z,101533.38
2022-11-29T05:43:17.191Z,101524.00
2022-11-29T05:45:51.333Z,101531.22
2022-11-29T05:48:28.455Z,101542.63
2022-11-29T05:51:12.814Z,101541.03
2022-11-29T05:53:49.986Z,101547.50
2022-11-29T05:56:29.169Z,101546.22
2022-11-29T05:59:01.810Z,101536.94
2022-11-29T06:01:38.098Z,101541.34
2022-11-29T06:04:15.117Z,101536.22
2022-11-29T06:06:49.601Z,101537.34
2022-11-29T06:09:27.782Z,101530.69
2022-11-29T06:12:03.012Z,101518.63
2022-11-29T06:15:00.624Z,101532.09
2022-11-29T06:17:43.665Z,101527.94
2022-11-29T06:20:42.273Z,101538.81
2022-11-29T06:23:29.392Z,101549.19
2022-11-29T06:26:12.247Z,101557.03
2022-11-29T06:28:59.082Z,101564.88
2022-11-29T06:31:34.210Z,101563.22
2022-11-29T06:34:11.405Z,101563.38
2022-11-29T06:36:46.377Z,101558.97
2022-11-29T06:39:19.256Z,101571.06
2022-11-29T06:41:49.179Z,101571.03
2022-11-29T06:44:18.341Z,101576.28
2022-11-29T06:46:50.385Z,101576.28
2022-11-29T06:49:26.679Z,101573.66
2022-11-29T06:52:06.902Z,101566.72
2022-11-29T06:54:53.746Z,101558.97
2022-11-29T06:57:30.353Z,101553.00
2022-11-29T07:00:12.037Z,101557.56
2022-11-29T07:03:11.382Z,101563.03
2022-11-29T07:05:41.152Z,101568.38
2022-11-29T07:08:16.469Z,101572.00
2022-11-29T07:10:51.110Z,101573.59
2022-11-29T07:13:21.940Z,101580.34
2022-11-29T07:16:01.116Z,101585.31
2022-11-29T07:18:45.163Z,101592.09
2022-11-29T07:21:24.390Z,101590.28
2022-11-29T07:24:02.043Z,101589.19
2022-11-29T07:26:41.246Z,101595.94
2022-11-29T07:29:25.006Z,101594.97
2022-11-29T07:32:15.134Z,101587.97
2022-11-29T07:34:55.693Z,101586.97
2022-11-29T07:37:35.356Z,101584.25
2022-11-29T07:40:19.104Z,101582.41
2022-11-29T07:43:02.748Z,101585.88
2022-11-29T07:45:36.371Z,101592.84
2022-11-29T07:48:08.695Z,101594.66
2022-11-29T07:50:45.417Z,101602.41
2022-11-29T07:53:18.298Z,101601.41
2022-11-29T07:55:47.618Z,101607.47
2022-11-29T07:58:22.463Z,101595.97
2022-11-29T08:00:52.000Z,101599.44
2022-11-29T08:03:22.015Z,101611.50
2022-11-29T08:05:51.502Z,101614.84
2022-11-29T08:08:19.831Z,101618.25
2022-11-29T08:11:13.494Z,101622.56
2022-11-29T08:13:57.624Z,101621.72
2022-11-29T08:16:43.780Z,101628.63
2022-11-29T08:19:14.065Z,101633.72
2022-11-29T08:21:47.034Z,101619.66
2022-11-29T08:24:16.092Z,101627.34
2022-11-29T08:26:44.852Z,101630.81
2022-11-29T08:29:15.654Z,101622.03
2022-11-29T08:31:44.423Z,101617.59
2022-11-29T08:34:13.825Z,101624.44
2022-11-29T08:36:42.729Z,101623.50
2022-11-29T08:39:11.478Z,101610.22
2022-11-29T08:41:40.474Z,101607.41
2022-11-29T08:44:09.361Z,101605.50
2022-11-29T08:46:56.592Z,101612.38
2022-11-29T08:49:25.115Z,101605.25
2022-11-29T08:52:14.441Z,101613.84
2022-11-29T08:54:42.075Z,101620.84
2022-11-29T08:57:38.463Z,101622.56
2022-11-29T08:59:59.502Z,101627.69
2022-11-29T09:02:29.670Z,101629.44
2022-11-29T09:04:58.375Z,101628.47
2022-11-29T09:07:27.042Z,101638.81
2022-11-29T09:09:55.303Z,101629.00
2022-11-29T09:12:23.698Z,101633.19
2022-11-29T09:14:52.027Z,101635.63
2022-11-29T09:17:20.365Z,101633.78
2022-11-29T09:19:50.427Z,101637.16
2022-11-29T09:22:19.161Z,101649.34
2022-11-29T09:24:48.214Z,101649.28
2022-11-29T09:27:17.247Z,101656.09
2022-11-29T09:29:45.573Z,101661.22
2022-11-29T09:32:14.340Z,101670.88
2022-11-29T09:34:43.364Z,101662.00
2022-11-29T09:37:14.304Z,101658.41
2022-11-29T09:39:42.697Z,101658.28
2022-11-29T09:42:23.948Z,101649.50
2022-11-29T09:45:04.601Z,101650.28
2022-11-29T09:47:58.347Z,101645.84
2022-11-29T09:50:34.971Z,101643.94
2022-11-29T09:53:21.079Z,101652.56
2022-11-29T09:56:01.382Z,101645.44
2022-11-29T09:58:34.599Z,101645.28
2022-11-29T10:01:07.933Z,101656.66
2022-11-29T10:03:42.832Z,101653.03
2022-11-29T10:06:21.242Z,101657.31
2022-11-29T10:08:57.469Z,101651.06
2022-11-29T10:11:30.966Z,101650.09
2022-11-29T10:14:03.367Z,101653.44
2022-11-29T10:16:43.342Z,101656.81
2022-11-29T10:19:21.554Z,101654.00
2022-11-29T10:22:01.099Z,101649.53
2022-11-29T10:24:33.045Z,101646.84
2022-11-29T10:27:01.715Z,101650.25
2022-11-29T10:29:30.084Z,101644.88
2022-11-29T10:32:10.052Z,101643.81
2022-11-29T10:34:40.303Z,101647.00
2022-11-29T10:37:15.123Z,101655.59
2022-11-29T10:39:49.339Z,101647.59
2022-11-29T10:42:39.756Z,101646.53
2022-11-29T10:45:18.156Z,101642.81
2022-11-29T10:47:50.181Z,101647.81
2022-11-29T10:50:23.570Z,101646.66
2022-11-29T10:52:54.712Z,101642.97
2022-11-29T10:55:35.450Z,101653.34
2022-11-29T10:58:14.054Z,101656.75
2022-11-29T11:00:55.056Z,101647.88
2022-11-29T11:03:32.700Z,101653.91
2022-11-29T11:06:10.126Z,101645.91
2022-11-29T11:08:40.782Z,101637.09
2022-11-29T11:11:12.772Z,101643.06
2022-11-29T11:13:42.559Z,101639.50
2022-11-29T11:16:18.351Z,101632.47
2022-11-29T11:18:49.335Z,101628.78
2022-11-29T11:21:20.969Z,101615.53
2022-11-29T11:23:56.690Z,101602.28
2022-11-29T11:26:28.370Z,101596.66
2022-11-29T11:29:00.467Z,101600.81
2022-11-29T11:31:33.098Z,101606.00
2022-11-29T11:34:26.252Z,101598.84
2022-11-29T11:36:56.451Z,101599.47
2022-11-29T11:39:26.067Z,101596.44
2022-11-29T11:42:13.320Z,101593.66
2022-11-29T11:44:50.499Z,101594.28
2022-11-29T11:47:22.744Z,101587.84
2022-11-29T11:49:55.892Z,101588.47
2022-11-29T11:52:27.152Z,101587.38
2022-11-29T11:54:59.020Z,101581.59
2022-11-29T11:57:30.674Z,101559.66
2022-11-29T12:00:06.626Z,101556.53
2022-11-29T12:02:40.391Z,101559.81
2022-11-29T12:05:16.037Z,101566.91
2022-11-29T12:08:09.372Z,101552.59
2022-11-29T12:10:40.425Z,101543.94
2022-11-29T12:13:22.110Z,101542.19
2022-11-29T12:15:53.817Z,101534.38
2022-11-29T12:18:30.561Z,101533.91
2022-11-29T12:21:03.334Z,101528.06
2022-11-29T12:23:42.182Z,101523.31
2022-11-29T12:26:48.593Z,101523.16
2022-11-29T12:29:14.976Z,101524.00
2022-11-29T12:31:57.050Z,101521.81
2022-11-29T12:34:54.860Z,101528.72
2022-11-29T12:37:32.955Z,101529.31
2022-11-29T12:40:13.064Z,101524.97
2022-11-29T12:42:50.941Z,101515.91
2022-11-29T12:45:38.016Z,101515.47
2022-11-29T12:48:19.835Z,101507.56
2022-11-29T12:50:58.457Z,101516.25
2022-11-29T12:53:42.991Z,101507.13
2022-11-29T12:56:17.874Z,101508.06
2022-11-29T12:59:12.682Z,101507.69
2022-11-29T13:02:05.552Z,101506.50
2022-11-29T13:04:45.573Z,101507.28
2022-11-29T13:07:26.081Z,101513.63
2022-11-29T13:10:21.657Z,101505.66
2022-11-29T13:12:55.419Z,101511.22
2022-11-29T13:15:30.364Z,101494.13
2022-11-29T13:18:08.810Z,101482.06
2022-11-29T13:20:43.567Z,101490.31
2022-11-29T13:23:20.905Z,101482.53
2022-11-29T13:25:52.382Z,101481.81
2022-11-29T13:28:27.428Z,101480.78
2022-11-29T13:31:02.200Z,101481.59
2022-11-29T13:33:36.421Z,101472.06
2022-11-29T13:36:16.101Z,101468.19
2022-11-29T13:38:52.652Z,101460.41
2022-11-29T13:41:31.142Z,101468.53
2022-11-29T13:44:10.368Z,101468.19
2022-11-29T13:46:54.431Z,101465.31
2022-11-29T13:49:45.549Z,101468.56
2022-11-29T13:52:39.211Z,101464.16
2022-11-29T13:55:29.582Z,101453.69
2022-11-29T13:58:22.743Z,101452.63
2022-11-29T14:00:53.077Z,101449.03
2022-11-29T14:03:36.842Z,101452.78
2022-11-29T14:06:12.088Z,101461.53
2022-11-29T14:09:17.339Z,101459.91
2022-11-29T14:11:46.622Z,101454.53
2022-11-29T14:14:24.903Z,101452.25
2022-11-29T14:16:57.862Z,101454.09
2022-11-29T14:19:33.409Z,101456.03
2022-11-29T14:22:32.065Z,101461.06
2022-11-29T14:25:49.896Z,101449.03
2022-11-29T14:28:30.346Z,101452.06
2022-11-29T14:31:02.016Z,101441.38
2022-11-29T14:33:50.764Z,101445.00
2022-11-29T14:36:44.351Z,101444.25
2022-11-29T14:39:31.414Z,101449.69
2022-11-29T14:42:17.221Z,101452.47
2022-11-29T14:44:51.703Z,101447.31
2022-11-29T14:47:33.343Z,101440.41
2022-11-29T14:50:06.975Z,101452.91
2022-11-29T14:52:39.637Z,101444.63
2022-11-29T14:55:31.668Z,101457.53
2022-11-29T14:58:23.600Z,101449.31
2022-11-29T15:01:09.570Z,101455.00
2022-11-29T15:03:49.991Z,101454.53
2022-11-29T15:06:29.367Z,101453.16
2022-11-29T15:09:06.162Z,101456.09
2022-11-29T15:11:52.274Z,101452.03
2022-11-29T15:14:27.490Z,101449.72
2022-11-29T15:17:11.031Z,101452.56
2022-11-29T15:20:13.412Z,101462.44
2022-11-29T15:22:52.620Z,101456.50
2022-11-29T15:25:23.127Z,101448.06
2022-11-29T15:27:55.118Z,101448.25
2022-11-29T15:30:31.820Z,101453.56
2022-11-29T15:33:02.387Z,101453.78
2022-11-29T15:35:31.427Z,101454.84
2022-11-29T15:38:00.029Z,101445.44
2022-11-29T15:40:35.900Z,101448.38
2022-11-29T15:43:18.630Z,101462.50
2022-11-29T15:45:52.147Z,101465.19
2022-11-29T15:48:23.939Z,101463.56
2022-11-29T15:51:04.922Z,101470.88
2022-11-29T15:53:40.465Z,101469.31
2022-11-29T15:56:16.900Z,101472.34
2022-11-29T15:58:53.848Z,101470.78
2022-11-29T16:01:23.196Z,101471.03
2022-11-29T16:03:56.081Z,101474.78
2022-11-29T16:06:30.707Z,101473.25
2022-11-29T16:09:02.196Z,101479.56
2022-11-29T16:11:34.475Z,101476.38
2022-11-29T16:14:19.404Z,101472.28
2022-11-29T16:16:52.619Z,101480.38
2022-11-29T16:19:30.964Z,101477.78
2022-11-29T16:22:11.195Z,101474.47
2022-11-29T16:24:42.078Z,101486.88
2022-11-29T16:27:14.344Z,101479.94
2022-11-29T16:29:47.619Z,101480.84
2022-11-29T16:32:28.176Z,101497.44
2022-11-29T16:34:58.583Z,101491.47
2022-11-29T16:37:30.878Z,101498.50
2022-11-29T16:40:03.109Z,101492.41
2022-11-29T16:42:36.444Z,101494.16
2022-11-29T16:45:27.142Z,101495.38
2022-11-29T16:47:58.998Z,101490.13
2022-11-29T16:50:30.251Z,101486.66
2022-11-29T16:53:34.205Z,101498.97
2022-11-29T16:56:03.162Z,101498.28
2022-11-29T16:58:31.960Z,101496.66
2022-11-29T17:01:16.681Z,101502.13
2022-11-29T17:03:45.821Z,101500.38
2022-11-29T17:06:16.399Z,101503.94
2022-11-29T17:08:45.725Z,101507.56
2022-11-29T17:11:14.783Z,101506.75
2022-11-29T17:13:43.968Z,101504.22
2022-11-29T17:16:20.941Z,101506.19
2022-11-29T17:18:49.846Z,101504.88
2022-11-29T17:21:20.212Z,101512.13
2022-11-29T17:23:51.388Z,101513.06
2022-11-29T17:26:21.242Z,101509.59
2022-11-29T17:28:51.302Z,101510.63
2022-11-29T17:31:25.286Z,101509.06
2022-11-29T17:33:55.517Z,101515.16
2022-11-29T17:36:24.157Z,101515.25
2022-11-29T17:38:52.599Z,101520.59
2022-11-29T17:41:23.715Z,101520.66
2022-11-29T17:43:53.812Z,101522.63
2022-11-29T17:46:27.518Z,101519.16
2022-11-29T17:49:00.232Z,101527.78
2022-11-29T17:51:51.322Z,101517.38
2022-11-29T17:54:19.192Z,101521.78
2022-11-29T17:56:55.354Z,101518.34
2022-11-29T17:59:23.904Z,101526.13
2022-11-29T18:01:55.015Z,101524.44
2022-11-29T18:04:23.753Z,101518.41
2022-11-29T18:06:57.901Z,101517.56
2022-11-29T18:09:26.966Z,101516.72
2022-11-29T18:11:55.676Z,101525.63
2022-11-29T18:14:29.533Z,101528.28
2022-11-29T18:17:01.723Z,101526.50
2022-11-29T18:19:32.368Z,101522.25
2022-11-29T18:22:02.550Z,101526.78
2022-11-29T18:24:31.710Z,101522.44
2022-11-29T18:27:00.560Z,101525.06
2022-11-29T18:29:36.463Z,101530.25
2022-11-29T18:32:10.188Z,101532.84
2022-11-29T18:34:38.892Z,101527.63
2022-11-29T18:37:11.103Z,101522.38
2022-11-29T18:39:46.379Z,101525.81
2022-11-29T18:42:15.815Z,101527.53
2022-11-29T18:44:45.715Z,101528.47
2022-11-29T18:47:18.296Z,101535.38
2022-11-29T18:49:46.902Z,101536.41
2022-11-29T18:52:15.581Z,101533.88
2022-11-29T18:54:44.388Z,101540.91
2022-11-29T18:57:14.047Z,101535.72
2022-11-29T18:59:42.533Z,101536.59
2022-11-29T19:02:11.339Z,101540.13
2022-11-29T19:04:41.638Z,101535.59
2022-11-29T19:07:10.260Z,101537.34
2022-11-29T19:09:38.871Z,101535.53
2022-11-29T19:12:07.922Z,101533.78
2022-11-29T19:14:36.495Z,101529.31
2022-11-29T19:17:05.042Z,101532.75
2022-11-29T19:19:33.601Z,101523.88
2022-11-29T19:22:03.660Z,101516.03
2022-11-29T19:24:32.293Z,101517.75
2022-11-29T19:27:01.314Z,101518.59
2022-11-29T19:29:32.031Z,101521.22
2022-11-29T19:32:04.060Z,101516.84
2022-11-29T19:34:35.350Z,101522.06
2022-11-29T19:37:05.392Z,101524.69
2022-11-29T19:39:34.216Z,101527.25
2022-11-29T19:42:03.780Z,101522.81
2022-11-29T19:44:48.308Z,101520.97
2022-11-29T19:47:22.215Z,101518.34
2022-11-29T19:49:50.896Z,101526.31
2022-11-29T19:52:21.179Z,101521.16
2022-11-29T19:54:49.874Z,101524.63
2022-11-29T19:57:18.360Z,101512.44
2022-11-29T19:59:47.613Z,101514.09
2022-11-29T20:02:16.607Z,101516.84
2022-11-29T20:04:49.597Z,101514.41
2022-11-29T20:07:18.248Z,101518.06
2022-11-29T20:09:49.067Z,101518.13
2022-11-29T20:12:19.805Z,101514.78
2022-11-29T20:14:48.624Z,101511.34
2022-11-29T20:17:17.223Z,101511.44
2022-11-29T20:19:46.190Z,101508.69
2022-11-29T20:22:14.975Z,101513.00
2022-11-29T20:24:45.605Z,101510.47
2022-11-29T20:27:15.761Z,101513.28
2022-11-29T20:29:44.808Z,101505.72
2022-11-29T20:32:15.152Z,101512.91
2022-11-29T20:34:44.608Z,101516.50
2022-11-29T20:37:30.733Z,101511.56
2022-11-29T20:40:02.661Z,101509.84
2022-11-29T20:42:59.240Z,101514.31
2022-11-29T20:45:28.560Z,101515.22
2022-11-29T20:48:02.886Z,101526.56
2022-11-29T20:50:33.497Z,101520.50
2022-11-29T20:53:28.088Z,101521.53
2022-11-29T20:55:56.725Z,101518.88
2022-11-29T20:58:27.620Z,101524.03
2022-11-29T21:00:59.517Z,101524.88
2022-11-29T21:03:29.555Z,101516.19
2022-11-29T21:05:59.069Z,101526.66
2022-11-29T21:08:28.129Z,101521.41
2022-11-29T21:11:02.775Z,101524.09
2022-11-29T21:13:34.431Z,101525.88
2022-11-29T21:16:03.994Z,101528.50
2022-11-29T21:18:34.277Z,101527.56
2022-11-29T21:21:15.588Z,101532.56
2022-11-29T21:23:55.829Z,101524.69
2022-11-29T21:26:30.275Z,101515.94
2022-11-29T21:29:14.023Z,101521.13
2022-11-29T21:31:43.203Z,101519.44
2022-11-29T21:34:11.939Z,101522.94
2022-11-29T21:36:40.959Z,101523.06
2022-11-29T21:39:14.194Z,101523.94
2022-11-29T21:41:43.018Z,101517.84
2022-11-29T21:44:13.137Z,101519.47
2022-11-29T21:46:41.935Z,101521.16
2022-11-29T21:49:10.582Z,101522.03
2022-11-29T21:51:39.122Z,101524.69
2022-11-29T21:54:07.730Z,101528.25
2022-11-29T21:56:36.479Z,101524.69
2022-11-29T21:59:06.251Z,101522.91
2022-11-29T22:01:36.636Z,101522.91
2022-11-29T22:04:05.851Z,101518.69
2022-11-29T22:06:34.539Z,101527.38
2022-11-29T22:09:03.142Z,101523.75
2022-11-29T22:11:32.101Z,101524.59
2022-11-29T22:14:16.088Z,101527.28
2022-11-29T22:16:48.898Z,101525.50
2022-11-29T22:19:19.109Z,101523.78
2022-11-29T22:21:49.901Z,101522.94
2022-11-29T22:24:21.275Z,101529.09
2022-11-29T22:26:50.884Z,101530.75
2022-11-29T22:29:19.548Z,101529.00
2022-11-29T22:31:55.481Z,101535.13
2022-11-29T22:34:25.532Z,101530.84
2022-11-29T22:36:54.092Z,101528.31
2022-11-29T22:39:22.903Z,101529.19
2022-11-29T22:41:54.652Z,101536.16
2022-11-29T22:44:23.985Z,101524.84
2022-11-29T22:46:53.974Z,101530.84
2022-11-29T22:49:22.639Z,101531.78
2022-11-29T22:51:51.296Z,101530.94
2022-11-29T22:54:20.594Z,101527.38
2022-11-29T22:56:50.416Z,101526.66
2022-11-29T22:59:20.835Z,101525.88
2022-11-29T23:01:49.745Z,101529.34
2022-11-29T23:04:19.713Z,101508.41
2022-11-29T23:06:48.247Z,101514.47
2022-11-29T23:09:22.684Z,101517.09
2022-11-29T23:11:53.380Z,101515.34
2022-11-29T23:14:22.427Z,101510.88
2022-11-29T23:16:51.388Z,101513.47
2022-11-29T23:19:21.971Z,101510.00
2022-11-29T23:21:50.638Z,101512.53
2022-11-29T23:24:19.164Z,101508.16
2022-11-29T23:26:48.577Z,101510.00
2022-11-29T23:29:20.444Z,101508.25
2022-11-29T23:31:49.291Z,101507.38
2022-11-29T23:34:17.869Z,101511.69
2022-11-29T23:36:52.687Z,101507.38
2022-11-29T23:39:22.659Z,101492.56
2022-11-29T23:41:51.279Z,101500.41
2022-11-29T23:44:20.669Z,101496.94
2022-11-29T23:46:49.462Z,101497.09
2022-11-29T23:49:18.104Z,101505.78
2022-11-29T23:51:48.216Z,101506.81
2022-11-29T23:54:16.709Z,101512.97
2022-11-29T23:56:45.103Z,101513.81
2022-11-29T23:59:13.616Z,101513.81
